Startpagina
METAR-TAF:

METAR-TAF

Vliegvelden :

Militair vliegvled

Tulln an der Donau, Oostenrijk

breedte: 48-19N, lengte: 016-07E, hoogte: 175 m

METAR: ontbreekt

Tijdstip: 12:19 (10:19 UTC)

Verwachting

Dit bericht is 2 uur en het 4 minuten geleden gemaakt, om 08:15 UTC
Verwachting geldig van 25 om 09 UTC tot 25 om 18 UTC
Wind 10 kt uit het westzuidwesten
Zicht 10 km of meer
Gebroken wolken op 4000 ft
Tijdelijke
van 25 om 09 UTC tot 25 om 16 UTC
Wind 15 kt uit het westnoordwesten met uitschieters tot 25 kt
Zicht: 6000 m
Weinig wolken op 1000 ft
Weinig wolken op 3500 ft, Stapelwolken.
Gebroken wolken op 4000 ft
regenbuien
Kans 30% :
Tijdelijke
van 25 om 12 UTC tot 25 om 16 UTC
Weinig wolken op 3000 ft, Cumulonimbus.
Gebroken wolken op 3000 ft
onweer, regen

TAF: LOXT 250815Z 2509/2518 25010KT 9999 BKN040 TEMPO 2509/2516 30015G25KT 6000 SHRA FEW010 FEW035TCU BKN040 PROB30 TEMPO 2512/2516 TSRA FEW030CB BKN030

Waarnemingen en weersverwachtingen van meer dan 4000 vliegvelden (METAR en TAF).

De beschikbare stations zijn de gele en rode punten op de kaart.

Ga met uw muis naar het station om de naam te zien.

Klik dan om waarnemingen en weersverwachtingen te zien.

kaart wijzigen: klik op de groene knoppen met een zwart kruis om in te zoomen, op de groene knop met een streepje om uit te zoomen of op de groene pijlen voor aangrenzende kaarten.


METAR-TAF: